Terminal Aerodrome Forecast
Issued by NWS

Home | Current Version | Previous Version | Text Only | Print | Product List | Glossary On
Versions: 1 2 3 4 5 6 7 8 9 10 11 12 13 14 15 16
000
FTUS45 KABQ 242339
TAFAEG
TAF
KAEG 242339Z 2500/2524 32012G20KT P6SM VCSH BKN060
     FM250200 32007KT P6SM VCSH BKN070
     FM250400 27006KT P6SM SCT080
     FM252100 29012G20KT P6SM -SHRA BKN060=

USA.gov is the U.S. government's official web portal to all federal, state and local government web resources and services.